createdAt,value
2017-08-05T00:00:15.733Z,0
2017-08-05T00:01:17.111Z,0
2017-08-05T00:02:18.512Z,0
2017-08-05T00:03:19.894Z,0
2017-08-05T00:04:21.328Z,0
2017-08-05T00:05:22.706Z,0
2017-08-05T00:06:24.091Z,0
2017-08-05T00:07:25.466Z,0
2017-08-05T00:08:26.848Z,0
2017-08-05T00:09:28.230Z,0
2017-08-05T00:10:29.661Z,0
2017-08-05T00:11:31.042Z,0
2017-08-05T00:12:32.425Z,0
2017-08-05T00:13:33.802Z,0
2017-08-05T00:14:35.187Z,0
2017-08-05T00:15:36.566Z,0
2017-08-05T00:16:37.941Z,0
2017-08-05T00:17:39.318Z,0
2017-08-05T00:18:40.697Z,0
2017-08-05T00:19:42.096Z,0
2017-08-05T00:20:43.475Z,0
2017-08-05T00:21:44.847Z,0
2017-08-05T00:22:46.230Z,0
2017-08-05T00:23:47.611Z,0
2017-08-05T00:24:48.992Z,0
2017-08-05T00:25:50.369Z,0
2017-08-05T00:26:51.748Z,0
2017-08-05T00:27:53.125Z,0
2017-08-05T00:28:54.506Z,0
2017-08-05T00:29:55.899Z,0
2017-08-05T00:30:57.275Z,0
2017-08-05T00:31:58.660Z,0
2017-08-05T00:33:00.034Z,0
2017-08-05T00:34:01.410Z,0
2017-08-05T00:35:02.794Z,0
2017-08-05T00:36:04.169Z,0
2017-08-05T00:37:05.558Z,0
2017-08-05T00:38:06.930Z,0
2017-08-05T00:39:08.317Z,0
2017-08-05T00:40:09.707Z,0
2017-08-05T00:41:11.100Z,0
2017-08-05T00:42:12.484Z,0
2017-08-05T00:43:13.870Z,0
2017-08-05T00:44:15.249Z,0
2017-08-05T00:45:16.631Z,0
2017-08-05T00:46:18.027Z,0
2017-08-05T00:47:19.386Z,0
2017-08-05T00:48:20.802Z,0
2017-08-05T00:49:22.179Z,0
2017-08-05T00:50:23.571Z,0
2017-08-05T00:51:24.941Z,0
2017-08-05T00:52:26.321Z,0
2017-08-05T00:53:27.710Z,0
2017-08-05T00:54:29.077Z,0
2017-08-05T00:55:30.462Z,0
2017-08-05T00:56:31.836Z,0
2017-08-05T00:57:33.215Z,0
2017-08-05T00:58:34.597Z,0
2017-08-05T00:59:35.981Z,0
2017-08-05T01:00:37.365Z,0
2017-08-05T01:01:38.744Z,0
2017-08-05T01:02:40.127Z,0
2017-08-05T01:03:41.509Z,0
2017-08-05T01:04:42.882Z,0
2017-08-05T01:05:44.269Z,0
2017-08-05T01:06:45.647Z,0
2017-08-05T01:07:47.033Z,0
2017-08-05T01:08:48.406Z,0
2017-08-05T01:09:49.782Z,0
2017-08-05T01:10:51.158Z,0
2017-08-05T01:11:52.536Z,0
2017-08-05T01:12:53.912Z,0
2017-08-05T01:13:55.299Z,0
2017-08-05T01:14:56.675Z,0
2017-08-05T01:15:58.053Z,0
2017-08-05T01:16:59.431Z,0
2017-08-05T01:18:00.816Z,0
2017-08-05T01:19:02.186Z,0
2017-08-05T01:20:03.568Z,0
2017-08-05T01:21:04.943Z,0
2017-08-05T01:22:06.323Z,0
2017-08-05T01:23:07.708Z,0
2017-08-05T01:24:09.091Z,0
2017-08-05T01:25:10.452Z,0
2017-08-05T01:26:11.834Z,0
2017-08-05T01:27:13.210Z,0
2017-08-05T01:28:14.598Z,0
2017-08-05T01:29:15.969Z,0
2017-08-05T01:30:17.363Z,0
2017-08-05T01:31:18.726Z,0
2017-08-05T01:32:20.114Z,0
2017-08-05T01:33:21.487Z,0
2017-08-05T01:34:22.899Z,0
2017-08-05T01:35:24.283Z,0
2017-08-05T01:36:26.662Z,0
2017-08-05T01:37:28.040Z,0
2017-08-05T01:38:29.430Z,0
2017-08-05T01:39:30.807Z,0
2017-08-05T01:40:32.185Z,0
2017-08-05T01:41:33.560Z,0
2017-08-05T01:42:34.946Z,0
2017-08-05T01:43:36.322Z,0
2017-08-05T01:44:37.704Z,0
2017-08-05T01:45:39.090Z,0
2017-08-05T01:46:40.472Z,0
2017-08-05T01:47:41.857Z,0
2017-08-05T01:48:43.234Z,0
2017-08-05T01:49:44.623Z,0
2017-08-05T01:50:46.016Z,0
2017-08-05T01:51:47.393Z,0
2017-08-05T01:52:48.778Z,0
2017-08-05T01:53:50.156Z,0
2017-08-05T01:54:51.538Z,0
2017-08-05T01:55:52.916Z,0
2017-08-05T01:56:54.312Z,0
2017-08-05T01:57:55.692Z,0
2017-08-05T01:58:57.067Z,0
2017-08-05T01:59:58.464Z,0
2017-08-05T02:00:59.848Z,0
2017-08-05T02:02:01.228Z,0
2017-08-05T02:03:02.614Z,0
2017-08-05T02:04:03.991Z,0
2017-08-05T02:05:05.383Z,0
2017-08-05T02:06:06.763Z,0
2017-08-05T02:07:08.146Z,0
2017-08-05T02:08:09.537Z,0
2017-08-05T02:09:10.908Z,0
2017-08-05T02:10:12.288Z,0
2017-08-05T02:11:13.673Z,0
2017-08-05T02:12:15.057Z,0
2017-08-05T02:13:16.435Z,0
2017-08-05T02:14:17.813Z,0
2017-08-05T02:15:19.201Z,0
2017-08-05T02:16:20.577Z,0
2017-08-05T02:17:21.966Z,0
2017-08-05T02:18:23.344Z,0
2017-08-05T02:19:24.726Z,0
2017-08-05T02:20:26.101Z,0
2017-08-05T02:21:27.522Z,0
2017-08-05T02:22:28.900Z,0
2017-08-05T02:23:30.280Z,0
2017-08-05T02:24:31.664Z,0
2017-08-05T02:25:33.049Z,0
2017-08-05T02:26:34.433Z,0
2017-08-05T02:27:35.816Z,0
2017-08-05T02:28:37.195Z,0
2017-08-05T02:29:38.579Z,0
2017-08-05T02:30:39.963Z,0
2017-08-05T02:31:41.349Z,0
2017-08-05T02:32:42.731Z,0
2017-08-05T02:33:44.112Z,0
2017-08-05T02:34:45.486Z,0
2017-08-05T02:35:46.893Z,0
2017-08-05T02:36:48.259Z,0
2017-08-05T02:37:49.635Z,0
2017-08-05T02:38:51.020Z,0
2017-08-05T02:39:52.410Z,0
2017-08-05T02:40:53.789Z,0
2017-08-05T02:41:55.170Z,0
2017-08-05T02:42:56.545Z,0
2017-08-05T02:43:57.920Z,0
2017-08-05T02:44:59.303Z,0
2017-08-05T02:46:00.683Z,0
2017-08-05T02:47:02.064Z,0
2017-08-05T02:48:03.445Z,0
2017-08-05T02:49:04.827Z,0
2017-08-05T02:50:06.211Z,0
2017-08-05T02:51:07.592Z,0
2017-08-05T02:52:08.986Z,0
2017-08-05T02:53:10.371Z,0
2017-08-05T02:54:11.756Z,0
2017-08-05T02:55:13.162Z,0
2017-08-05T02:56:14.539Z,0
2017-08-05T02:57:15.913Z,0
2017-08-05T02:58:17.299Z,0
2017-08-05T02:59:18.677Z,0
2017-08-05T03:00:20.063Z,0
2017-08-05T03:01:21.444Z,0
2017-08-05T03:02:22.820Z,0
2017-08-05T03:03:24.201Z,0
2017-08-05T03:04:25.586Z,0
2017-08-05T03:05:26.969Z,0
2017-08-05T03:06:28.354Z,0
2017-08-05T03:07:29.730Z,0
2017-08-05T03:08:31.122Z,0
2017-08-05T03:09:32.495Z,0
2017-08-05T03:10:33.875Z,0
2017-08-05T03:11:35.253Z,0
2017-08-05T03:12:36.630Z,0
2017-08-05T03:13:38.003Z,0
2017-08-05T03:14:39.381Z,0
2017-08-05T03:15:40.761Z,0
2017-08-05T03:16:42.147Z,0
2017-08-05T03:17:43.519Z,0
2017-08-05T03:18:44.898Z,0
2017-08-05T03:19:46.273Z,0
2017-08-05T03:20:47.674Z,0
2017-08-05T03:21:49.049Z,0
2017-08-05T03:22:50.431Z,0
2017-08-05T03:23:51.819Z,0
2017-08-05T03:24:53.194Z,0
2017-08-05T03:25:54.567Z,0
2017-08-05T03:26:55.949Z,0
2017-08-05T03:27:57.324Z,0
2017-08-05T03:28:58.706Z,0
2017-08-05T03:30:00.086Z,0
2017-08-05T03:31:01.476Z,0
2017-08-05T03:32:02.847Z,0
2017-08-05T03:33:04.238Z,0
2017-08-05T03:34:05.615Z,0
2017-08-05T03:35:06.998Z,0
2017-08-05T03:36:08.380Z,0
2017-08-05T03:37:09.774Z,0
2017-08-05T03:38:11.151Z,0
2017-08-05T03:39:12.532Z,0
2017-08-05T03:40:13.906Z,0
2017-08-05T03:41:16.341Z,0
2017-08-05T03:42:17.724Z,0
2017-08-05T03:43:19.106Z,0
2017-08-05T03:44:20.491Z,0
2017-08-05T03:45:21.880Z,0
2017-08-05T03:46:23.258Z,0
2017-08-05T03:47:24.636Z,0
2017-08-05T03:48:26.015Z,0
2017-08-05T03:49:27.398Z,0
2017-08-05T03:50:28.784Z,0
2017-08-05T03:51:30.187Z,5
2017-08-05T03:52:31.567Z,5
2017-08-05T03:53:32.955Z,5
2017-08-05T03:54:34.331Z,5
2017-08-05T03:55:35.718Z,5
2017-08-05T03:56:37.099Z,5
2017-08-05T03:57:38.482Z,11
2017-08-05T03:58:39.887Z,11
2017-08-05T03:59:41.265Z,11
2017-08-05T04:00:42.645Z,11
2017-08-05T04:01:44.033Z,11
2017-08-05T04:02:45.417Z,16
2017-08-05T04:03:46.807Z,16
2017-08-05T04:04:48.199Z,16
2017-08-05T04:05:49.600Z,16
2017-08-05T04:06:50.988Z,22
2017-08-05T04:07:52.369Z,22
2017-08-05T04:08:53.758Z,22
2017-08-05T04:09:55.136Z,28
2017-08-05T04:10:56.526Z,28
2017-08-05T04:11:57.902Z,28
2017-08-05T04:12:59.300Z,33
2017-08-05T04:14:00.684Z,33
2017-08-05T04:15:02.077Z,39
2017-08-05T04:16:03.459Z,39
2017-08-05T04:17:04.851Z,39
2017-08-05T04:18:06.232Z,45
2017-08-05T04:19:07.613Z,45
2017-08-05T04:20:08.999Z,50
2017-08-05T04:21:10.387Z,50
2017-08-05T04:22:11.768Z,56
2017-08-05T04:23:13.152Z,61
2017-08-05T04:24:14.530Z,61
2017-08-05T04:25:15.918Z,67
2017-08-05T04:26:17.298Z,73
2017-08-05T04:27:18.688Z,73
2017-08-05T04:28:20.074Z,73
2017-08-05T04:29:21.455Z,78
2017-08-05T04:30:22.843Z,78
2017-08-05T04:31:24.222Z,78
2017-08-05T04:32:25.608Z,78
2017-08-05T04:33:26.992Z,84
2017-08-05T04:34:28.378Z,90
2017-08-05T04:35:29.762Z,95
2017-08-05T04:36:31.147Z,95
2017-08-05T04:37:32.531Z,101
2017-08-05T04:38:33.929Z,106
2017-08-05T04:39:35.340Z,112
2017-08-05T04:40:36.750Z,112
2017-08-05T04:41:38.154Z,118
2017-08-05T04:42:39.537Z,118
2017-08-05T04:43:40.960Z,123
2017-08-05T04:44:42.330Z,135
2017-08-05T04:45:43.719Z,146
2017-08-05T04:46:45.103Z,140
2017-08-05T04:47:46.497Z,140
2017-08-05T04:48:47.883Z,140
2017-08-05T04:49:50.273Z,135
2017-08-05T04:50:51.656Z,135
2017-08-05T04:51:53.043Z,140
2017-08-05T04:52:54.422Z,140
2017-08-05T04:53:55.810Z,140
2017-08-05T04:54:57.195Z,135
2017-08-05T04:55:58.581Z,129
2017-08-05T04:56:59.973Z,123
2017-08-05T04:58:01.355Z,123
2017-08-05T04:59:02.749Z,129
2017-08-05T05:00:04.165Z,140
2017-08-05T05:01:05.550Z,151
2017-08-05T05:02:06.937Z,163
2017-08-05T05:03:08.325Z,174
2017-08-05T05:04:09.724Z,185
2017-08-05T05:05:11.105Z,191
2017-08-05T05:06:12.572Z,185
2017-08-05T05:07:13.962Z,185
2017-08-05T05:08:15.358Z,191
2017-08-05T05:09:16.740Z,202
2017-08-05T05:10:18.133Z,208
2017-08-05T05:11:19.515Z,219
2017-08-05T05:12:20.921Z,225
2017-08-05T05:13:22.308Z,236
2017-08-05T05:14:23.693Z,241
2017-08-05T05:15:25.116Z,241
2017-08-05T05:16:26.505Z,247
2017-08-05T05:17:27.894Z,264
2017-08-05T05:18:29.283Z,275
2017-08-05T05:19:30.669Z,281
2017-08-05T05:20:32.055Z,286
2017-08-05T05:21:33.433Z,298
2017-08-05T05:22:34.830Z,292
2017-08-05T05:23:36.211Z,292
2017-08-05T05:24:37.602Z,298
2017-08-05T05:25:38.997Z,309
2017-08-05T05:26:40.394Z,326
2017-08-05T05:27:41.781Z,331
2017-08-05T05:28:43.172Z,348
2017-08-05T05:29:44.555Z,371
2017-08-05T05:30:45.948Z,376
2017-08-05T05:31:47.334Z,376
2017-08-05T05:32:48.734Z,371
2017-08-05T05:33:50.136Z,360
2017-08-05T05:34:51.526Z,360
2017-08-05T05:35:52.901Z,360
2017-08-05T05:36:54.305Z,371
2017-08-05T05:37:55.678Z,376
2017-08-05T05:38:57.075Z,388
2017-08-05T05:39:58.464Z,399
2017-08-05T05:40:59.853Z,405
2017-08-05T05:42:01.238Z,405
2017-08-05T05:43:02.633Z,399
2017-08-05T05:44:04.015Z,405
2017-08-05T05:45:05.411Z,405
2017-08-05T05:46:06.799Z,405
2017-08-05T05:47:08.193Z,405
2017-08-05T05:48:09.579Z,416
2017-08-05T05:49:10.971Z,427
2017-08-05T05:50:12.402Z,433
2017-08-05T05:51:13.792Z,427
2017-08-05T05:52:15.182Z,421
2017-08-05T05:53:16.578Z,416
2017-08-05T05:54:17.983Z,421
2017-08-05T05:55:19.362Z,421
2017-08-05T05:56:20.759Z,410
2017-08-05T05:57:22.174Z,405
2017-08-05T05:58:23.558Z,410
2017-08-05T05:59:24.955Z,427
2017-08-05T06:00:26.341Z,455
2017-08-05T06:01:27.759Z,511
2017-08-05T06:02:29.124Z,556
2017-08-05T06:03:30.525Z,585
2017-08-05T06:04:31.908Z,573
2017-08-05T06:05:33.313Z,540
2017-08-05T06:06:34.702Z,523
2017-08-05T06:07:36.096Z,517
2017-08-05T06:08:37.501Z,495
2017-08-05T06:09:38.902Z,483
2017-08-05T06:10:40.286Z,478
2017-08-05T06:11:41.688Z,534
2017-08-05T06:12:43.082Z,540
2017-08-05T06:13:44.475Z,540
2017-08-05T06:14:45.864Z,534
2017-08-05T06:15:47.262Z,534
2017-08-05T06:16:48.650Z,545
2017-08-05T06:17:50.042Z,545
2017-08-05T06:18:51.429Z,545
2017-08-05T06:19:52.826Z,528
2017-08-05T06:20:54.236Z,506
2017-08-05T06:21:55.634Z,489
2017-08-05T06:22:57.027Z,489
2017-08-05T06:23:58.425Z,483
2017-08-05T06:24:59.808Z,438
2017-08-05T06:26:01.200Z,399
2017-08-05T06:27:02.589Z,371
2017-08-05T06:28:03.985Z,365
2017-08-05T06:29:05.376Z,360
2017-08-05T06:30:06.782Z,365
2017-08-05T06:31:08.166Z,376
2017-08-05T06:32:09.564Z,393
2017-08-05T06:33:10.986Z,405
2017-08-05T06:34:12.377Z,421
2017-08-05T06:35:13.769Z,472
2017-08-05T06:36:15.166Z,534
2017-08-05T06:37:16.556Z,540
2017-08-05T06:38:17.956Z,461
2017-08-05T06:39:19.340Z,388
2017-08-05T06:40:20.736Z,354
2017-08-05T06:41:22.129Z,365
2017-08-05T06:42:23.537Z,405
2017-08-05T06:43:24.936Z,433
2017-08-05T06:44:26.331Z,416
2017-08-05T06:45:27.714Z,388
2017-08-05T06:46:29.117Z,365
2017-08-05T06:47:30.506Z,354
2017-08-05T06:48:31.900Z,343
2017-08-05T06:49:33.294Z,360
2017-08-05T06:50:34.683Z,416
2017-08-05T06:51:36.072Z,405
2017-08-05T06:52:37.463Z,382
2017-08-05T06:53:38.855Z,393
2017-08-05T06:54:40.249Z,444
2017-08-05T06:55:41.648Z,495
2017-08-05T06:56:43.043Z,534
2017-08-05T06:57:44.459Z,556
2017-08-05T06:58:45.853Z,568
2017-08-05T06:59:47.243Z,585
2017-08-05T07:01:32.814Z,607
2017-08-05T07:02:34.219Z,669
2017-08-05T07:03:35.612Z,765
2017-08-05T07:04:36.996Z,815
2017-08-05T07:05:38.415Z,826
2017-08-05T07:06:39.806Z,804
2017-08-05T07:07:41.257Z,708
2017-08-05T07:08:42.678Z,618
2017-08-05T07:09:44.150Z,579
2017-08-05T07:10:45.535Z,568
2017-08-05T07:11:46.928Z,562
2017-08-05T07:12:48.347Z,540
2017-08-05T07:13:49.739Z,579
2017-08-05T07:14:51.144Z,720
2017-08-05T07:15:52.567Z,877
2017-08-05T07:16:53.956Z,1096
2017-08-05T07:17:55.351Z,1226
2017-08-05T07:18:56.735Z,1361
2017-08-05T07:19:58.131Z,1653
2017-08-05T07:20:59.528Z,1344
2017-08-05T07:22:00.940Z,1141
2017-08-05T07:23:02.331Z,1063
2017-08-05T07:24:03.725Z,990
2017-08-05T07:25:05.115Z,973
2017-08-05T07:26:06.528Z,995
2017-08-05T07:27:07.921Z,1023
2017-08-05T07:28:09.322Z,1001
2017-08-05T07:29:10.716Z,945
2017-08-05T07:30:13.115Z,900
2017-08-05T07:31:14.519Z,928
2017-08-05T07:32:15.920Z,1051
2017-08-05T07:33:17.425Z,1220
2017-08-05T07:34:18.825Z,1411
2017-08-05T07:35:20.215Z,1473
2017-08-05T07:36:21.630Z,1220
2017-08-05T07:37:23.011Z,804
2017-08-05T07:38:24.411Z,1687
2017-08-05T07:39:25.803Z,2289
2017-08-05T07:40:27.213Z,2334
2017-08-05T07:41:28.619Z,2430
2017-08-05T07:42:30.022Z,1558
2017-08-05T07:43:31.419Z,1653
2017-08-05T07:44:32.820Z,1513
2017-08-05T07:45:34.219Z,1411
2017-08-05T07:46:35.618Z,1186
2017-08-05T07:47:37.014Z,1108
2017-08-05T07:48:38.427Z,1051
2017-08-05T07:49:39.844Z,956
2017-08-05T07:50:41.275Z,894
2017-08-05T07:51:42.682Z,950
2017-08-05T07:52:44.086Z,1125
2017-08-05T07:53:45.526Z,1192
2017-08-05T07:54:46.944Z,933
2017-08-05T07:55:48.367Z,973
2017-08-05T07:56:49.763Z,1046
2017-08-05T07:57:51.156Z,1856
2017-08-05T07:58:52.557Z,2278
2017-08-05T07:59:53.959Z,2227
2017-08-05T08:01:32.330Z,0
2017-08-05T08:02:33.719Z,0
2017-08-05T08:03:35.130Z,0
2017-08-05T08:04:36.504Z,0
2017-08-05T08:05:37.897Z,0
2017-08-05T08:06:39.295Z,0
2017-08-05T08:07:40.689Z,0
2017-08-05T08:08:42.089Z,0
2017-08-05T08:09:43.487Z,0
2017-08-05T08:10:44.898Z,0
2017-08-05T08:11:46.298Z,0
2017-08-05T08:12:47.692Z,0
2017-08-05T08:13:49.112Z,0
2017-08-05T08:14:50.502Z,0
2017-08-05T08:15:51.896Z,0
2017-08-05T08:16:53.314Z,0
2017-08-05T08:17:54.707Z,0
2017-08-05T08:18:56.094Z,0
2017-08-05T08:19:57.506Z,0
2017-08-05T08:20:58.895Z,0
2017-08-05T08:22:00.326Z,0
2017-08-05T08:23:01.719Z,0
2017-08-05T08:24:03.121Z,0
2017-08-05T08:25:04.514Z,0
2017-08-05T08:26:05.912Z,0
2017-08-05T08:27:07.318Z,0
2017-08-05T08:28:08.741Z,0
2017-08-05T08:29:10.135Z,0
2017-08-05T08:30:11.544Z,0
2017-08-05T08:31:12.941Z,0
2017-08-05T08:32:14.336Z,0
2017-08-05T08:33:15.747Z,0
2017-08-05T08:34:17.143Z,0
2017-08-05T08:35:18.537Z,0
2017-08-05T08:36:19.939Z,0
2017-08-05T08:37:21.348Z,0
2017-08-05T08:38:22.745Z,0
2017-08-05T08:39:24.142Z,0
2017-08-05T08:40:25.534Z,0
2017-08-05T08:41:26.944Z,0
2017-08-05T08:42:28.363Z,0
2017-08-05T08:43:29.771Z,0
2017-08-05T08:44:31.187Z,0
2017-08-05T08:45:32.581Z,0
2017-08-05T08:46:33.977Z,0
2017-08-05T08:47:35.372Z,0
2017-08-05T08:48:36.775Z,0
2017-08-05T08:49:38.173Z,0
2017-08-05T08:50:39.575Z,0
2017-08-05T08:51:40.982Z,0
2017-08-05T08:52:42.366Z,0
2017-08-05T08:53:43.762Z,0
2017-08-05T08:54:45.171Z,0
2017-08-05T08:55:46.574Z,0
2017-08-05T08:56:48.030Z,0
2017-08-05T08:57:49.439Z,0
2017-08-05T08:58:50.842Z,0
2017-08-05T08:59:52.234Z,0
2017-08-05T09:01:32.401Z,2520
2017-08-05T09:02:33.803Z,2401
2017-08-05T09:03:35.210Z,2823
2017-08-05T09:04:36.613Z,3358
2017-08-05T09:05:38.051Z,1175
2017-08-05T09:06:39.450Z,1350
2017-08-05T09:07:40.870Z,2098
2017-08-05T09:08:42.282Z,2970
2017-08-05T09:09:43.684Z,2941
2017-08-05T09:10:45.097Z,3060
2017-08-05T09:11:46.497Z,1603
2017-08-05T09:12:47.901Z,2857
2017-08-05T09:13:49.306Z,2677
2017-08-05T09:14:50.722Z,2722
2017-08-05T09:15:52.149Z,2722
2017-08-05T09:16:53.549Z,2846
2017-08-05T09:17:54.967Z,2700
2017-08-05T09:18:56.372Z,2784
2017-08-05T09:19:57.776Z,2981
2017-08-05T09:20:59.186Z,2272
2017-08-05T09:22:00.582Z,2677
2017-08-05T09:23:01.987Z,2784
2017-08-05T09:24:03.404Z,2863
2017-08-05T09:25:04.808Z,2970
2017-08-05T09:26:06.221Z,3110
2017-08-05T09:27:07.624Z,1147
2017-08-05T09:28:09.046Z,748
2017-08-05T09:29:10.451Z,708
2017-08-05T09:30:11.861Z,2700
2017-08-05T09:31:13.285Z,3121
2017-08-05T09:32:14.668Z,1631
2017-08-05T09:33:16.065Z,1698
2017-08-05T09:34:17.479Z,1411
2017-08-05T09:35:18.878Z,1721
2017-08-05T09:36:20.290Z,1293
2017-08-05T09:37:21.716Z,1636
2017-08-05T09:38:23.123Z,3076
2017-08-05T09:39:24.516Z,1338
2017-08-05T09:40:25.930Z,1276
2017-08-05T09:41:27.326Z,2733
2017-08-05T09:42:28.738Z,3853
2017-08-05T09:43:30.136Z,2345
2017-08-05T09:44:31.546Z,1507
2017-08-05T09:45:32.944Z,1591
2017-08-05T09:46:34.354Z,1243
2017-08-05T09:47:35.752Z,1125
2017-08-05T09:48:37.155Z,1074
2017-08-05T09:49:38.554Z,1164
2017-08-05T09:50:39.986Z,1237
2017-08-05T09:51:41.368Z,1395
2017-08-05T09:52:42.781Z,1321
2017-08-05T09:53:44.173Z,1170
2017-08-05T09:54:45.582Z,1018
2017-08-05T09:55:46.980Z,922
2017-08-05T09:56:48.383Z,900
2017-08-05T09:57:49.783Z,860
2017-08-05T09:58:51.189Z,978
2017-08-05T09:59:52.591Z,1085
2017-08-05T10:01:32.475Z,933
2017-08-05T10:02:33.915Z,742
2017-08-05T10:03:36.315Z,675
2017-08-05T10:04:37.711Z,635
2017-08-05T10:05:39.119Z,714
2017-08-05T10:06:40.520Z,1338
2017-08-05T10:07:41.940Z,1141
2017-08-05T10:08:43.368Z,1113
2017-08-05T10:09:44.764Z,1912
2017-08-05T10:10:46.158Z,3802
2017-08-05T10:11:47.558Z,1603
2017-08-05T10:12:49.019Z,1479
2017-08-05T10:13:50.408Z,2435
2017-08-05T10:14:51.803Z,1648
2017-08-05T10:15:53.204Z,2109
2017-08-05T10:16:54.603Z,1383
2017-08-05T10:17:56.057Z,1884
2017-08-05T10:18:57.451Z,1417
2017-08-05T10:19:58.870Z,1473
2017-08-05T10:21:00.282Z,1659
2017-08-05T10:22:01.703Z,1417
2017-08-05T10:23:03.120Z,1473
2017-08-05T10:24:04.530Z,1524
2017-08-05T10:25:06.023Z,1451
2017-08-05T10:26:07.430Z,1428
2017-08-05T10:27:08.845Z,1434
2017-08-05T10:28:10.268Z,1496
2017-08-05T10:29:11.668Z,1496
2017-08-05T10:30:13.093Z,1372
2017-08-05T10:31:14.486Z,1372
2017-08-05T10:32:15.938Z,1276
2017-08-05T10:33:17.371Z,1158
2017-08-05T10:34:18.783Z,1051
2017-08-05T10:35:20.176Z,984
2017-08-05T10:36:21.576Z,928
2017-08-05T10:37:22.986Z,950
2017-08-05T10:38:24.380Z,1006
2017-08-05T10:39:25.787Z,905
2017-08-05T10:40:27.187Z,849
2017-08-05T10:41:28.579Z,1012
2017-08-05T10:42:29.985Z,1175
2017-08-05T10:43:31.387Z,1113
2017-08-05T10:44:32.796Z,961
2017-08-05T10:45:34.221Z,905
2017-08-05T10:46:35.618Z,866
2017-08-05T10:47:37.002Z,838
2017-08-05T10:48:38.420Z,871
2017-08-05T10:49:39.809Z,1046
2017-08-05T10:50:41.231Z,1051
2017-08-05T10:51:42.632Z,990
2017-08-05T10:52:44.047Z,995
2017-08-05T10:53:45.469Z,1023
2017-08-05T10:54:46.900Z,1243
2017-08-05T10:55:48.306Z,1546
2017-08-05T10:56:49.743Z,1715
2017-08-05T10:57:51.155Z,1687
2017-08-05T10:58:52.556Z,1496
2017-08-05T10:59:53.950Z,1338
2017-08-05T11:00:55.350Z,1220
2017-08-05T11:01:56.745Z,1170
2017-08-05T11:02:58.160Z,1282
2017-08-05T11:03:59.608Z,1490
2017-08-05T11:05:01.004Z,1518
2017-08-05T11:06:02.412Z,1546
2017-08-05T11:07:03.805Z,1580
2017-08-05T11:08:05.217Z,1811
2017-08-05T11:09:06.637Z,1833
2017-08-05T11:10:08.030Z,1614
2017-08-05T11:11:09.432Z,1350
2017-08-05T11:12:10.888Z,1080
2017-08-05T11:13:12.319Z,956
2017-08-05T11:14:13.773Z,922
2017-08-05T11:15:15.183Z,984
2017-08-05T11:16:16.575Z,1113
2017-08-05T11:17:17.988Z,1254
2017-08-05T11:18:19.427Z,1378
2017-08-05T11:19:21.913Z,1496
2017-08-05T11:20:23.319Z,1389
2017-08-05T11:21:24.816Z,1361
2017-08-05T11:22:26.219Z,1080
2017-08-05T11:23:27.702Z,961
2017-08-05T11:24:29.097Z,877
2017-08-05T11:25:30.553Z,821
2017-08-05T11:26:31.950Z,821
2017-08-05T11:27:33.433Z,826
2017-08-05T11:28:34.840Z,838
2017-08-05T11:29:36.252Z,888
2017-08-05T11:30:37.642Z,950
2017-08-05T11:31:39.114Z,945
2017-08-05T11:32:40.519Z,871
2017-08-05T11:33:41.978Z,871
2017-08-05T11:34:43.516Z,759
2017-08-05T11:35:45.038Z,607
2017-08-05T11:36:46.598Z,489
2017-08-05T11:37:48.154Z,450
2017-08-05T11:38:49.697Z,427
2017-08-05T11:39:51.326Z,416
2017-08-05T11:40:52.876Z,393
2017-08-05T11:41:54.458Z,388
2017-08-05T11:42:56.026Z,393
2017-08-05T11:43:57.502Z,393
2017-08-05T11:44:59.027Z,388
2017-08-05T11:46:00.608Z,371
2017-08-05T11:47:02.125Z,371
2017-08-05T11:48:03.633Z,393
2017-08-05T11:49:05.207Z,399
2017-08-05T11:50:06.779Z,393
2017-08-05T11:51:08.294Z,376
2017-08-05T11:52:09.818Z,371
2017-08-05T11:53:11.396Z,365
2017-08-05T11:54:12.885Z,388
2017-08-05T11:55:14.387Z,455
2017-08-05T11:56:15.923Z,523
2017-08-05T11:57:17.473Z,517
2017-08-05T11:58:18.989Z,455
2017-08-05T11:59:20.549Z,444
2017-08-05T12:00:22.188Z,511
2017-08-05T12:01:23.721Z,556
2017-08-05T12:02:25.323Z,523
2017-08-05T12:03:26.904Z,483
2017-08-05T12:04:28.475Z,483
2017-08-05T12:05:30.079Z,461
2017-08-05T12:06:31.694Z,450
2017-08-05T12:07:33.340Z,483
2017-08-05T12:08:34.837Z,506
2017-08-05T12:09:36.349Z,511
2017-08-05T12:10:37.882Z,511
2017-08-05T12:11:39.431Z,489
2017-08-05T12:12:40.965Z,472
2017-08-05T12:13:42.520Z,438
2017-08-05T12:14:44.038Z,360
2017-08-05T12:15:45.563Z,303
2017-08-05T12:16:47.080Z,258
2017-08-05T12:17:48.651Z,241
2017-08-05T12:18:50.140Z,241
2017-08-05T12:19:51.684Z,286
2017-08-05T12:20:53.244Z,303
2017-08-05T12:21:54.786Z,281
2017-08-05T12:22:56.311Z,230
2017-08-05T12:23:57.877Z,185
2017-08-05T12:24:59.437Z,191
2017-08-05T12:26:00.940Z,191
2017-08-05T12:27:02.491Z,163
2017-08-05T12:28:04.031Z,163
2017-08-05T12:29:05.529Z,168
2017-08-05T12:30:07.020Z,185
2017-08-05T12:31:08.570Z,202
2017-08-05T12:32:10.105Z,264
2017-08-05T12:33:11.608Z,371
2017-08-05T12:34:13.187Z,455
2017-08-05T12:35:14.792Z,534
2017-08-05T12:36:17.293Z,601
2017-08-05T12:37:18.808Z,736
2017-08-05T12:38:20.291Z,883
2017-08-05T12:39:21.760Z,855
2017-08-05T12:40:23.230Z,770
2017-08-05T12:41:24.707Z,731
2017-08-05T12:42:26.218Z,843
2017-08-05T12:43:27.728Z,990
2017-08-05T12:44:29.237Z,1096
2017-08-05T12:45:30.771Z,1136
2017-08-05T12:46:33.306Z,1158
2017-08-05T12:47:34.802Z,1130
2017-08-05T12:48:36.344Z,1023
2017-08-05T12:49:37.958Z,855
2017-08-05T12:50:39.496Z,759
2017-08-05T12:51:41.020Z,748
2017-08-05T12:52:42.543Z,843
2017-08-05T12:53:44.058Z,888
2017-08-05T12:54:45.567Z,838
2017-08-05T12:55:47.061Z,748
2017-08-05T12:56:48.617Z,731
2017-08-05T12:57:50.188Z,793
2017-08-05T12:58:51.732Z,849
2017-08-05T12:59:53.217Z,776
2017-08-05T13:00:54.706Z,697
2017-08-05T13:01:56.263Z,686
2017-08-05T13:02:57.755Z,697
2017-08-05T13:03:59.239Z,731
2017-08-05T13:05:00.754Z,720
2017-08-05T13:06:02.328Z,725
2017-08-05T13:07:03.834Z,708
2017-08-05T13:08:05.375Z,736
2017-08-05T13:09:06.855Z,916
2017-08-05T13:10:08.388Z,1141
2017-08-05T13:11:09.899Z,1355
2017-08-05T13:12:11.423Z,1479
2017-08-05T13:13:13.961Z,1372
2017-08-05T13:14:15.482Z,1248
2017-08-05T13:15:16.990Z,1192
2017-08-05T13:16:18.515Z,1192
2017-08-05T13:17:20.008Z,1215
2017-08-05T13:18:21.516Z,1175
2017-08-05T13:19:23.059Z,1102
2017-08-05T13:20:24.568Z,1153
2017-08-05T13:21:26.063Z,1147
2017-08-05T13:22:27.554Z,1074
2017-08-05T13:23:29.073Z,1108
2017-08-05T13:24:30.596Z,1265
2017-08-05T13:25:32.147Z,1276
2017-08-05T13:26:33.971Z,1215
2017-08-05T13:27:35.490Z,1141
2017-08-05T13:28:37.019Z,1119
2017-08-05T13:29:38.581Z,1203
2017-08-05T13:30:40.103Z,1389
2017-08-05T13:31:41.650Z,1670
2017-08-05T13:32:43.223Z,1451
2017-08-05T13:33:44.735Z,1361
2017-08-05T13:34:46.241Z,1445
2017-08-05T13:35:47.840Z,2587
2017-08-05T13:36:49.374Z,2874
2017-08-05T13:37:50.888Z,2581
2017-08-05T13:38:52.420Z,2368
2017-08-05T13:39:54.963Z,2238
2017-08-05T13:40:56.516Z,1023
2017-08-05T13:41:58.098Z,1141
2017-08-05T13:42:59.656Z,1192
2017-08-05T13:44:01.181Z,1603
2017-08-05T13:45:02.704Z,1597
2017-08-05T13:46:04.292Z,843
2017-08-05T13:47:05.843Z,725
2017-08-05T13:48:07.404Z,697
2017-08-05T13:49:08.951Z,646
2017-08-05T13:50:10.551Z,590
2017-08-05T13:51:12.080Z,562
2017-08-05T13:52:13.596Z,545
2017-08-05T13:53:15.101Z,585
2017-08-05T13:54:16.678Z,556
2017-08-05T13:55:18.230Z,528
2017-08-05T13:56:19.819Z,585
2017-08-05T13:57:21.359Z,658
2017-08-05T13:58:22.860Z,714
2017-08-05T13:59:24.401Z,855
2017-08-05T14:01:32.723Z,945
2017-08-05T14:02:34.118Z,1665
2017-08-05T14:03:35.530Z,1614
2017-08-05T14:04:36.932Z,1209
2017-08-05T14:05:38.353Z,950
2017-08-05T14:06:39.747Z,860
2017-08-05T14:07:41.170Z,1496
2017-08-05T14:08:42.572Z,956
2017-08-05T14:09:43.978Z,1046
2017-08-05T14:10:45.379Z,1080
2017-08-05T14:11:46.774Z,1018
2017-08-05T14:12:48.184Z,736
2017-08-05T14:13:49.573Z,573
2017-08-05T14:14:50.975Z,427
2017-08-05T14:15:52.377Z,331
2017-08-05T14:16:53.765Z,253
2017-08-05T14:17:55.179Z,168
2017-08-05T14:18:56.572Z,101
2017-08-05T14:19:57.971Z,67
2017-08-05T14:20:59.361Z,50
2017-08-05T14:22:00.768Z,45
2017-08-05T14:23:02.176Z,50
2017-08-05T14:24:03.563Z,61
2017-08-05T14:25:04.947Z,78